sensor_id;sensor_type;location;lat;lon;timestamp;pressure;altitude;pressure_sealevel;temperature;humidity
72585;BME280;60618;40.084;32.908;2022-07-10T00:00:05;88638.75;;;17.79;76.46
72585;BME280;60618;40.084;32.908;2022-07-10T00:02:32;88640.22;;;17.80;76.66
72585;BME280;60618;40.084;32.908;2022-07-10T00:04:59;88645.06;;;17.81;76.53
72585;BME280;60618;40.084;32.908;2022-07-10T00:07:26;88637.00;;;17.81;76.50
72585;BME280;60618;40.084;32.908;2022-07-10T00:09:53;88637.00;;;17.81;76.41
72585;BME280;60618;40.084;32.908;2022-07-10T00:12:20;88645.06;;;17.81;76.16
72585;BME280;60618;40.084;32.908;2022-07-10T00:14:47;88641.66;;;17.81;76.39
72585;BME280;60618;40.084;32.908;2022-07-10T00:17:13;88644.91;;;17.79;76.35
72585;BME280;60618;40.084;32.908;2022-07-10T00:19:41;88645.25;;;17.83;76.54
72585;BME280;60618;40.084;32.908;2022-07-10T00:22:08;88649.91;;;17.83;76.67
72585;BME280;60618;40.084;32.908;2022-07-10T00:24:34;88649.91;;;17.83;77.36
72585;BME280;60618;40.084;32.908;2022-07-10T00:27:01;88645.25;;;17.83;77.28
72585;BME280;60618;40.084;32.908;2022-07-10T00:29:28;88635.00;;;17.82;76.71
72585;BME280;60618;40.084;32.908;2022-07-10T00:31:55;88637.00;;;17.81;76.75
72585;BME280;60618;40.084;32.908;2022-07-10T00:34:22;88642.56;;;17.83;76.60
72585;BME280;60618;40.084;32.908;2022-07-10T00:36:49;88646.84;;;17.86;75.97
72585;BME280;60618;40.084;32.908;2022-07-10T00:39:16;88657.09;;;17.88;76.06
72585;BME280;60618;40.084;32.908;2022-07-10T00:41:42;88653.16;;;17.89;76.06
72585;BME280;60618;40.084;32.908;2022-07-10T00:44:09;88647.41;;;17.93;75.31
72585;BME280;60618;40.084;32.908;2022-07-10T00:46:36;88651.38;;;17.92;74.96
72585;BME280;60618;40.084;32.908;2022-07-10T00:49:03;88651.00;;;17.95;74.78
72585;BME280;60618;40.084;32.908;2022-07-10T00:51:30;88660.00;;;17.98;74.48
72585;BME280;60618;40.084;32.908;2022-07-10T00:53:57;88657.47;;;18.00;74.31
72585;BME280;60618;40.084;32.908;2022-07-10T00:56:26;88651.56;;;18.01;74.29
72585;BME280;60618;40.084;32.908;2022-07-10T00:58:54;88656.41;;;18.03;73.81
72585;BME280;60618;40.084;32.908;2022-07-10T01:01:21;88654.97;;;18.02;72.93
72585;BME280;60618;40.084;32.908;2022-07-10T01:03:48;88652.81;;;18.08;72.25
72585;BME280;60618;40.084;32.908;2022-07-10T01:06:16;88656.41;;;18.10;71.55
72585;BME280;60618;40.084;32.908;2022-07-10T01:08:44;88660.72;;;18.13;71.54
72585;BME280;60618;40.084;32.908;2022-07-10T01:11:13;88664.31;;;18.16;71.72
72585;BME280;60618;40.084;32.908;2022-07-10T01:13:42;88672.59;;;18.18;71.59
72585;BME280;60618;40.084;32.908;2022-07-10T01:16:11;88682.81;;;18.20;71.82
72585;BME280;60618;40.084;32.908;2022-07-10T01:18:38;88679.75;;;18.23;72.43
72585;BME280;60618;40.084;32.908;2022-07-10T01:21:23;88677.25;;;18.25;72.45
72585;BME280;60618;40.084;32.908;2022-07-10T01:23:49;88679.41;;;18.27;72.83
72585;BME280;60618;40.084;32.908;2022-07-10T01:26:17;88664.50;;;18.26;73.48
72585;BME280;60618;40.084;32.908;2022-07-10T01:28:43;88652.47;;;18.27;74.15
72585;BME280;60618;40.084;32.908;2022-07-10T01:31:10;88641.69;;;18.27;74.66
72585;BME280;60618;40.084;32.908;2022-07-10T01:33:37;88636.28;;;18.27;74.60
72585;BME280;60618;40.084;32.908;2022-07-10T01:36:04;88635.56;;;18.26;74.22
72585;BME280;60618;40.084;32.908;2022-07-10T01:38:31;88630.19;;;18.26;74.27
72585;BME280;60618;40.084;32.908;2022-07-10T01:40:58;88632.31;;;18.28;74.04
72585;BME280;60618;40.084;32.908;2022-07-10T01:43:25;88624.06;;;18.26;74.13
72585;BME280;60618;40.084;32.908;2022-07-10T01:45:52;88621.53;;;18.28;73.33
72585;BME280;60618;40.084;32.908;2022-07-10T01:48:19;88614.19;;;18.28;73.10
72585;BME280;60618;40.084;32.908;2022-07-10T01:50:46;88621.72;;;18.30;73.12
72585;BME280;60618;40.084;32.908;2022-07-10T01:53:12;88634.47;;;18.29;72.93
72585;BME280;60618;40.084;32.908;2022-07-10T01:55:39;88645.25;;;18.29;72.86
72585;BME280;60618;40.084;32.908;2022-07-10T01:58:06;88658.19;;;18.23;74.20
72585;BME280;60618;40.084;32.908;2022-07-10T02:00:33;88655.69;;;18.18;75.09
72585;BME280;60618;40.084;32.908;2022-07-10T02:03:00;88659.25;;;18.05;75.92
72585;BME280;60618;40.084;32.908;2022-07-10T02:05:27;88656.38;;;17.95;75.60
72585;BME280;60618;40.084;32.908;2022-07-10T02:07:53;88661.41;;;17.91;76.47
72585;BME280;60618;40.084;32.908;2022-07-10T02:10:20;88654.22;;;17.86;76.82
72585;BME280;60618;40.084;32.908;2022-07-10T02:12:47;88658.53;;;17.81;76.71
72585;BME280;60618;40.084;32.908;2022-07-10T02:15:14;88656.38;;;17.80;76.92
72585;BME280;60618;40.084;32.908;2022-07-10T02:17:41;88655.66;;;17.79;76.86
72585;BME280;60618;40.084;32.908;2022-07-10T02:20:08;88663.94;;;17.81;76.39
72585;BME280;60618;40.084;32.908;2022-07-10T02:22:36;88662.50;;;17.80;76.45
72585;BME280;60618;40.084;32.908;2022-07-10T02:25:04;88662.66;;;17.82;76.36
72585;BME280;60618;40.084;32.908;2022-07-10T02:27:31;88667.50;;;17.84;76.64
72585;BME280;60618;40.084;32.908;2022-07-10T02:29:58;88656.19;;;17.85;77.26
72585;BME280;60618;40.084;32.908;2022-07-10T02:32:25;88659.06;;;17.87;77.19
72585;BME280;60618;40.084;32.908;2022-07-10T02:34:52;88651.38;;;17.92;76.47
72585;BME280;60618;40.084;32.908;2022-07-10T02:37:19;88645.44;;;17.93;76.59
72585;BME280;60618;40.084;32.908;2022-07-10T02:39:45;88642.91;;;17.95;76.51
72585;BME280;60618;40.084;32.908;2022-07-10T02:42:12;88632.84;;;17.96;75.95
72585;BME280;60618;40.084;32.908;2022-07-10T02:44:39;88634.84;;;17.95;75.73
72585;BME280;60618;40.084;32.908;2022-07-10T02:47:06;88640.41;;;17.97;75.06
72585;BME280;60618;40.084;32.908;2022-07-10T02:49:33;88635.22;;;17.99;74.88
72585;BME280;60618;40.084;32.908;2022-07-10T02:52:00;88626.22;;;17.97;74.50
72585;BME280;60618;40.084;32.908;2022-07-10T02:54:26;88638.97;;;18.04;73.79
72585;BME280;60618;40.084;32.908;2022-07-10T02:56:53;88625.50;;;18.04;73.70
72585;BME280;60618;40.084;32.908;2022-07-10T02:59:20;88622.97;;;18.06;73.72
72585;BME280;60618;40.084;32.908;2022-07-10T03:01:47;88630.16;;;18.11;74.07
72585;BME280;60618;40.084;32.908;2022-07-10T03:04:14;88637.16;;;18.14;74.29
72585;BME280;60618;40.084;32.908;2022-07-10T03:06:41;88636.81;;;18.18;74.24
72585;BME280;60618;40.084;32.908;2022-07-10T03:09:07;88634.47;;;18.22;74.08
72585;BME280;60618;40.084;32.908;2022-07-10T03:11:34;88635.56;;;18.26;74.19
72585;BME280;60618;40.084;32.908;2022-07-10T03:14:01;88624.41;;;18.30;74.61
72585;BME280;60618;40.084;32.908;2022-07-10T03:16:28;88624.06;;;18.33;75.40
72585;BME280;60618;40.084;32.908;2022-07-10T03:18:55;88622.09;;;18.34;75.73
72585;BME280;60618;40.084;32.908;2022-07-10T03:21:22;88636.28;;;18.34;75.36
72585;BME280;60618;40.084;32.908;2022-07-10T03:23:49;88632.31;;;18.35;75.63
72585;BME280;60618;40.084;32.908;2022-07-10T03:26:15;88635.91;;;18.38;75.54
72585;BME280;60618;40.084;32.908;2022-07-10T03:28:42;88634.81;;;18.41;75.54
72585;BME280;60618;40.084;32.908;2022-07-10T03:31:09;88634.81;;;18.49;75.37
72585;BME280;60618;40.084;32.908;2022-07-10T03:33:36;88636.63;;;18.54;75.80
72585;BME280;60618;40.084;32.908;2022-07-10T03:36:03;88636.78;;;18.56;76.10
72585;BME280;60618;40.084;32.908;2022-07-10T03:38:31;88642.34;;;18.58;75.72
72585;BME280;60618;40.084;32.908;2022-07-10T03:40:58;88645.06;;;18.65;75.26
72585;BME280;60618;40.084;32.908;2022-07-10T03:43:25;88642.19;;;18.71;74.88
72585;BME280;60618;40.084;32.908;2022-07-10T03:45:52;88646.31;;;18.72;74.97
72585;BME280;60618;40.084;32.908;2022-07-10T03:48:19;88647.75;;;18.73;76.25
72585;BME280;60618;40.084;32.908;2022-07-10T03:50:49;88648.84;;;18.70;76.77
72585;BME280;60618;40.084;32.908;2022-07-10T03:53:17;88652.63;;;18.67;76.72
72585;BME280;60618;40.084;32.908;2022-07-10T03:55:44;88649.91;;;18.67;76.37
72585;BME280;60618;40.084;32.908;2022-07-10T03:58:13;88644.53;;;18.67;76.18
72585;BME280;60618;40.084;32.908;2022-07-10T04:00:40;88645.78;;;18.74;76.55
72585;BME280;60618;40.084;32.908;2022-07-10T04:03:07;88649.88;;;18.82;75.99
72585;BME280;60618;40.084;32.908;2022-07-10T04:05:35;88652.91;;;18.94;76.55
72585;BME280;60618;40.084;32.908;2022-07-10T04:08:03;88652.00;;;19.07;75.64
72585;BME280;60618;40.084;32.908;2022-07-10T04:10:30;88647.78;;;19.21;74.55
72585;BME280;60618;40.084;32.908;2022-07-10T04:12:58;88650.59;;;19.38;74.25
72585;BME280;60618;40.084;32.908;2022-07-10T04:15:25;88651.44;;;19.56;73.78
72585;BME280;60618;40.084;32.908;2022-07-10T04:17:52;88651.38;;;19.71;73.55
72585;BME280;60618;40.084;32.908;2022-07-10T04:20:20;88646.41;;;19.85;73.02
72585;BME280;60618;40.084;32.908;2022-07-10T04:22:47;88637.38;;;19.90;71.80
72585;BME280;60618;40.084;32.908;2022-07-10T04:25:14;88632.69;;;19.91;71.50
72585;BME280;60618;40.084;32.908;2022-07-10T04:27:41;88627.63;;;19.95;71.37
72585;BME280;60618;40.084;32.908;2022-07-10T04:30:09;88633.53;;;20.01;71.11
72585;BME280;60618;40.084;32.908;2022-07-10T04:32:36;88628.47;;;20.05;71.13
72585;BME280;60618;40.084;32.908;2022-07-10T04:35:03;88632.00;;;20.15;70.75
72585;BME280;60618;40.084;32.908;2022-07-10T04:37:30;88622.72;;;20.26;70.42
72585;BME280;60618;40.084;32.908;2022-07-10T04:43:18;88614.81;;;20.45;69.33
72585;BME280;60618;40.084;32.908;2022-07-10T04:45:45;88614.75;;;20.53;69.34
72585;BME280;60618;40.084;32.908;2022-07-10T04:48:12;88616.41;;;20.48;69.30
72585;BME280;60618;40.084;32.908;2022-07-10T04:50:39;88608.84;;;20.47;69.33
72585;BME280;60618;40.084;32.908;2022-07-10T04:53:06;88608.13;;;20.46;69.09
72585;BME280;60618;40.084;32.908;2022-07-10T04:55:33;88616.25;;;20.46;69.28
72585;BME280;60618;40.084;32.908;2022-07-10T04:58:00;88609.56;;;20.47;69.68
72585;BME280;60618;40.084;32.908;2022-07-10T05:00:27;88618.03;;;20.51;69.68
72585;BME280;60618;40.084;32.908;2022-07-10T05:02:54;88609.13;;;20.58;69.04
72585;BME280;60618;40.084;32.908;2022-07-10T05:05:21;88603.41;;;20.72;68.12
72585;BME280;60618;40.084;32.908;2022-07-10T05:07:48;88612.47;;;20.84;67.64
72585;BME280;60618;40.084;32.908;2022-07-10T05:10:15;88606.41;;;20.93;67.95
72585;BME280;60618;40.084;32.908;2022-07-10T05:12:41;88607.75;;;21.02;67.56
72585;BME280;60618;40.084;32.908;2022-07-10T05:15:09;88606.25;;;21.08;67.14
72585;BME280;60618;40.084;32.908;2022-07-10T05:17:35;88601.63;;;21.18;66.55
72585;BME280;60618;40.084;32.908;2022-07-10T05:20:03;88614.16;;;21.31;65.32
72585;BME280;60618;40.084;32.908;2022-07-10T05:22:30;88614.38;;;21.43;64.28
72585;BME280;60618;40.084;32.908;2022-07-10T05:24:57;88620.16;;;21.57;64.92
72585;BME280;60618;40.084;32.908;2022-07-10T05:27:23;88617.00;;;21.77;64.83
72585;BME280;60618;40.084;32.908;2022-07-10T05:29:50;88624.47;;;21.87;64.81
72585;BME280;60618;40.084;32.908;2022-07-10T05:32:17;88632.88;;;21.91;64.26
72585;BME280;60618;40.084;32.908;2022-07-10T05:34:44;88636.63;;;21.95;64.38
72585;BME280;60618;40.084;32.908;2022-07-10T05:37:11;88638.75;;;22.14;64.61
72585;BME280;60618;40.084;32.908;2022-07-10T05:39:38;88639.22;;;22.20;64.79
72585;BME280;60618;40.084;32.908;2022-07-10T05:42:05;88636.38;;;22.37;63.93
72585;BME280;60618;40.084;32.908;2022-07-10T05:44:32;88638.31;;;22.54;62.95
72585;BME280;60618;40.084;32.908;2022-07-10T05:46:59;88639.78;;;22.65;62.83
72585;BME280;60618;40.084;32.908;2022-07-10T05:49:26;88630.78;;;22.82;62.84
72585;BME280;60618;40.084;32.908;2022-07-10T05:51:53;88639.13;;;22.93;61.28
72585;BME280;60618;40.084;32.908;2022-07-10T05:54:20;88637.56;;;23.00;61.52
72585;BME280;60618;40.084;32.908;2022-07-10T05:56:47;88636.56;;;23.05;61.73
72585;BME280;60618;40.084;32.908;2022-07-10T05:59:13;88632.44;;;23.04;61.42
72585;BME280;60618;40.084;32.908;2022-07-10T06:01:40;88627.44;;;23.01;61.21
72585;BME280;60618;40.084;32.908;2022-07-10T06:04:07;88634.56;;;23.06;61.47
72585;BME280;60618;40.084;32.908;2022-07-10T06:06:34;88629.44;;;23.10;60.58
72585;BME280;60618;40.084;32.908;2022-07-10T06:09:01;88624.41;;;23.06;61.86
72585;BME280;60618;40.084;32.908;2022-07-10T06:11:28;88624.28;;;23.04;61.71
72585;BME280;60618;40.084;32.908;2022-07-10T06:13:55;88620.56;;;23.09;61.22
72585;BME280;60618;40.084;32.908;2022-07-10T06:16:22;88619.44;;;23.22;60.70
72585;BME280;60618;40.084;32.908;2022-07-10T06:18:49;88617.28;;;23.30;60.19
72585;BME280;60618;40.084;32.908;2022-07-10T06:21:16;88614.41;;;23.38;59.11
72585;BME280;60618;40.084;32.908;2022-07-10T06:23:43;88611.13;;;23.39;59.12
72585;BME280;60618;40.084;32.908;2022-07-10T06:26:10;88614.41;;;23.47;58.48
72585;BME280;60618;40.084;32.908;2022-07-10T06:28:37;88616.81;;;23.53;58.86
72585;BME280;60618;40.084;32.908;2022-07-10T06:31:04;88625.41;;;23.69;60.15
72585;BME280;60618;40.084;32.908;2022-07-10T06:33:31;88625.25;;;23.86;60.64
72585;BME280;60618;40.084;32.908;2022-07-10T06:35:58;88620.34;;;24.04;60.06
72585;BME280;60618;40.084;32.908;2022-07-10T06:38:25;88620.72;;;24.20;60.91
72585;BME280;60618;40.084;32.908;2022-07-10T06:40:52;88612.38;;;24.37;60.04
72585;BME280;60618;40.084;32.908;2022-07-10T06:43:19;88621.75;;;24.55;58.85
72585;BME280;60618;40.084;32.908;2022-07-10T06:45:46;88618.38;;;24.67;58.86
72585;BME280;60618;40.084;32.908;2022-07-10T06:48:14;88612.81;;;24.65;57.86
72585;BME280;60618;40.084;32.908;2022-07-10T06:50:42;88618.63;;;24.71;58.55
72585;BME280;60618;40.084;32.908;2022-07-10T06:53:08;88617.16;;;24.79;58.55
72585;BME280;60618;40.084;32.908;2022-07-10T06:55:35;88610.38;;;24.90;58.88
72585;BME280;60618;40.084;32.908;2022-07-10T06:58:02;88614.28;;;25.08;58.92
72585;BME280;60618;40.084;32.908;2022-07-10T07:00:32;88612.72;;;25.27;57.36
72585;BME280;60618;40.084;32.908;2022-07-10T07:02:59;88611.94;;;25.36;56.52
72585;BME280;60618;40.084;32.908;2022-07-10T07:05:26;88609.84;;;25.46;56.50
72585;BME280;60618;40.084;32.908;2022-07-10T07:07:53;88612.63;;;25.58;56.34
72585;BME280;60618;40.084;32.908;2022-07-10T07:10:20;88611.09;;;25.66;55.51
72585;BME280;60618;40.084;32.908;2022-07-10T07:12:47;88611.16;;;25.78;54.82
72585;BME280;60618;40.084;32.908;2022-07-10T07:15:13;88620.94;;;25.93;53.67
72585;BME280;60618;40.084;32.908;2022-07-10T07:17:41;88624.47;;;25.84;53.26
72585;BME280;60618;40.084;32.908;2022-07-10T07:20:08;88622.44;;;25.72;53.29
72585;BME280;60618;40.084;32.908;2022-07-10T07:22:36;88620.66;;;25.56;50.93
72585;BME280;60618;40.084;32.908;2022-07-10T07:25:04;88620.13;;;25.36;49.68
72585;BME280;60618;40.084;32.908;2022-07-10T07:27:31;88623.13;;;25.18;49.63
72585;BME280;60618;40.084;32.908;2022-07-10T07:30:03;88624.94;;;25.04;50.40
72585;BME280;60618;40.084;32.908;2022-07-10T07:32:30;88626.22;;;25.03;51.44
72585;BME280;60618;40.084;32.908;2022-07-10T07:34:58;88634.47;;;25.15;51.01
72585;BME280;60618;40.084;32.908;2022-07-10T07:37:38;88613.97;;;25.14;49.86
72585;BME280;60618;40.084;32.908;2022-07-10T07:40:07;88620.13;;;25.14;50.50
72585;BME280;60618;40.084;32.908;2022-07-10T07:42:35;88622.34;;;25.28;51.69
72585;BME280;60618;40.084;32.908;2022-07-10T07:45:03;88614.25;;;25.51;50.45
72585;BME280;60618;40.084;32.908;2022-07-10T07:47:39;88635.69;;;25.45;49.99
72585;BME280;60618;40.084;32.908;2022-07-10T07:50:08;88620.63;;;25.44;51.22
72585;BME280;60618;40.084;32.908;2022-07-10T07:52:35;88635.63;;;25.55;50.88
72585;BME280;60618;40.084;32.908;2022-07-10T07:55:02;88634.25;;;25.23;49.44
72585;BME280;60618;40.084;32.908;2022-07-10T07:57:29;88647.16;;;25.01;50.56
72585;BME280;60618;40.084;32.908;2022-07-10T07:59:56;88657.34;;;24.69;51.04
72585;BME280;60618;40.084;32.908;2022-07-10T08:02:23;88652.72;;;24.50;52.41
72585;BME280;60618;40.084;32.908;2022-07-10T08:04:50;88642.56;;;24.41;52.13
72585;BME280;60618;40.084;32.908;2022-07-10T08:07:17;88652.75;;;24.31;52.22
72585;BME280;60618;40.084;32.908;2022-07-10T08:09:44;88650.03;;;24.41;52.62
72585;BME280;60618;40.084;32.908;2022-07-10T08:12:11;88654.91;;;24.32;53.64
72585;BME280;60618;40.084;32.908;2022-07-10T08:14:38;88646.59;;;24.30;52.78
72585;BME280;60618;40.084;32.908;2022-07-10T08:17:05;88645.47;;;24.24;53.25
72585;BME280;60618;40.084;32.908;2022-07-10T08:19:32;88644.75;;;24.23;53.32
72585;BME280;60618;40.084;32.908;2022-07-10T08:21:59;88643.50;;;24.15;55.58
72585;BME280;60618;40.084;32.908;2022-07-10T08:24:25;88644.03;;;24.23;53.83
72585;BME280;60618;40.084;32.908;2022-07-10T08:26:52;88649.78;;;24.27;53.43
72585;BME280;60618;40.084;32.908;2022-07-10T08:29:19;88640.31;;;24.28;54.50
72585;BME280;60618;40.084;32.908;2022-07-10T08:31:46;88646.75;;;24.23;53.55
72585;BME280;60618;40.084;32.908;2022-07-10T08:34:13;88647.19;;;24.29;52.71
72585;BME280;60618;40.084;32.908;2022-07-10T08:36:40;88648.06;;;24.22;52.27
72585;BME280;60618;40.084;32.908;2022-07-10T08:39:13;88639.47;;;24.16;52.66
72585;BME280;60618;40.084;32.908;2022-07-10T08:41:40;88653.63;;;24.24;51.31
72585;BME280;60618;40.084;32.908;2022-07-10T08:44:09;88642.75;;;24.24;52.29
72585;BME280;60618;40.084;32.908;2022-07-10T08:46:40;88651.66;;;24.15;53.32
72585;BME280;60618;40.084;32.908;2022-07-10T08:49:08;88648.66;;;24.20;52.68
72585;BME280;60618;40.084;32.908;2022-07-10T08:51:38;88640.47;;;24.20;51.43
72585;BME280;60618;40.084;32.908;2022-07-10T08:54:08;88649.44;;;24.42;52.10
72585;BME280;60618;40.084;32.908;2022-07-10T08:56:35;88649.13;;;24.48;53.03
72585;BME280;60618;40.084;32.908;2022-07-10T08:59:03;88651.09;;;24.57;53.53
72585;BME280;60618;40.084;32.908;2022-07-10T09:01:30;88646.69;;;24.83;50.38
72585;BME280;60618;40.084;32.908;2022-07-10T09:03:58;88645.22;;;24.91;52.19
72585;BME280;60618;40.084;32.908;2022-07-10T09:06:27;88650.19;;;24.95;52.18
72585;BME280;60618;40.084;32.908;2022-07-10T09:09:06;88653.91;;;25.00;51.70
72585;BME280;60618;40.084;32.908;2022-07-10T09:11:33;88653.75;;;25.07;53.07
72585;BME280;60618;40.084;32.908;2022-07-10T09:14:02;88647.78;;;25.21;53.59
72585;BME280;60618;40.084;32.908;2022-07-10T09:16:31;88655.69;;;25.38;53.41
72585;BME280;60618;40.084;32.908;2022-07-10T09:19:19;88654.00;;;25.54;52.23
72585;BME280;60618;40.084;32.908;2022-07-10T09:21:54;88656.03;;;25.65;51.42
72585;BME280;60618;40.084;32.908;2022-07-10T09:24:22;88647.47;;;25.81;52.34
72585;BME280;60618;40.084;32.908;2022-07-10T09:29:21;88649.59;;;26.15;50.96
72585;BME280;60618;40.084;32.908;2022-07-10T09:32:02;88647.00;;;26.29;50.45
72585;BME280;60618;40.084;32.908;2022-07-10T09:47:42;88651.81;;;26.52;47.81
72585;BME280;60618;40.084;32.908;2022-07-10T09:53:01;88653.81;;;26.40;48.22
72585;BME280;60618;40.084;32.908;2022-07-10T09:55:31;88641.81;;;26.45;49.02
72585;BME280;60618;40.084;32.908;2022-07-10T09:58:06;88651.81;;;26.75;47.60
72585;BME280;60618;40.084;32.908;2022-07-10T10:00:35;88660.94;;;26.68;47.66
72585;BME280;60618;40.084;32.908;2022-07-10T10:03:07;88659.66;;;26.81;46.67
72585;BME280;60618;40.084;32.908;2022-07-10T10:05:37;88657.28;;;26.52;47.12
72585;BME280;60618;40.084;32.908;2022-07-10T10:08:10;88649.41;;;26.46;47.03
72585;BME280;60618;40.084;32.908;2022-07-10T10:10:42;88647.16;;;26.43;47.37
72585;BME280;60618;40.084;32.908;2022-07-10T10:13:11;88646.63;;;26.23;47.32
72585;BME280;60618;40.084;32.908;2022-07-10T10:15:39;88644.47;;;26.21;47.97
72585;BME280;60618;40.084;32.908;2022-07-10T10:18:06;88650.31;;;26.27;48.39
72585;BME280;60618;40.084;32.908;2022-07-10T10:20:34;88652.78;;;26.23;46.53
72585;BME280;60618;40.084;32.908;2022-07-10T10:23:01;88651.50;;;26.24;47.77
72585;BME280;60618;40.084;32.908;2022-07-10T10:25:32;88643.31;;;26.24;46.80
72585;BME280;60618;40.084;32.908;2022-07-10T10:28:01;88655.53;;;26.23;47.71
72585;BME280;60618;40.084;32.908;2022-07-10T10:30:29;88650.19;;;26.25;46.84
72585;BME280;60618;40.084;32.908;2022-07-10T10:32:57;88647.72;;;26.29;47.13
72585;BME280;60618;40.084;32.908;2022-07-10T10:38:10;88647.69;;;26.18;47.40
72585;BME280;60618;40.084;32.908;2022-07-10T10:40:37;88654.78;;;26.11;46.82
72585;BME280;60618;40.084;32.908;2022-07-10T10:43:20;88642.66;;;26.02;45.46
72585;BME280;60618;40.084;32.908;2022-07-10T10:45:47;88649.66;;;26.06;46.56
72585;BME280;60618;40.084;32.908;2022-07-10T10:48:18;88658.41;;;26.25;46.19
72585;BME280;60618;40.084;32.908;2022-07-10T10:51:04;88651.00;;;26.16;46.46
72585;BME280;60618;40.084;32.908;2022-07-10T10:53:31;88647.72;;;26.29;45.68
72585;BME280;60618;40.084;32.908;2022-07-10T10:58:38;88656.22;;;26.12;46.82
72585;BME280;60618;40.084;32.908;2022-07-10T11:06:51;88658.59;;;26.06;46.06
72585;BME280;60618;40.084;32.908;2022-07-10T11:11:59;88654.09;;;26.22;45.28
72585;BME280;60618;40.084;32.908;2022-07-10T11:14:27;88660.63;;;26.17;44.79
72585;BME280;60618;40.084;32.908;2022-07-10T11:16:55;88657.41;;;26.09;44.79
72585;BME280;60618;40.084;32.908;2022-07-10T11:19:26;88649.94;;;26.10;45.07
72585;BME280;60618;40.084;32.908;2022-07-10T11:30:52;88652.44;;;26.17;44.44
72585;BME280;60618;40.084;32.908;2022-07-10T11:33:20;88655.06;;;26.27;45.85
72585;BME280;60618;40.084;32.908;2022-07-10T11:35:49;88659.59;;;26.34;45.84
72585;BME280;60618;40.084;32.908;2022-07-10T11:38:24;88651.66;;;26.50;45.78
72585;BME280;60618;40.084;32.908;2022-07-10T11:40:52;88653.22;;;26.53;45.09
72585;BME280;60618;40.084;32.908;2022-07-10T11:43:19;88654.53;;;26.52;44.29
72585;BME280;60618;40.084;32.908;2022-07-10T11:45:45;88661.28;;;26.51;44.87
72585;BME280;60618;40.084;32.908;2022-07-10T11:48:22;88666.88;;;26.53;43.98
72585;BME280;60618;40.084;32.908;2022-07-10T11:50:49;88656.78;;;26.55;43.36
72585;BME280;60618;40.084;32.908;2022-07-10T11:53:23;88653.47;;;26.57;41.08
72585;BME280;60618;40.084;32.908;2022-07-10T11:55:51;88655.13;;;26.62;41.96
72585;BME280;60618;40.084;32.908;2022-07-10T11:58:19;88659.41;;;26.65;41.22
72585;BME280;60618;40.084;32.908;2022-07-10T12:01:00;88653.94;;;26.65;39.62
72585;BME280;60618;40.084;32.908;2022-07-10T12:03:27;88649.56;;;26.60;39.79
72585;BME280;60618;40.084;32.908;2022-07-10T12:05:55;88646.09;;;26.59;40.34
72585;BME280;60618;40.084;32.908;2022-07-10T12:08:27;88649.56;;;26.60;40.99
72585;BME280;60618;40.084;32.908;2022-07-10T12:10:54;88640.28;;;26.65;41.46
72585;BME280;60618;40.084;32.908;2022-07-10T12:13:21;88641.09;;;26.68;42.21
72585;BME280;60618;40.084;32.908;2022-07-10T12:15:48;88641.34;;;26.72;42.41
72585;BME280;60618;40.084;32.908;2022-07-10T12:18:20;88639.44;;;26.74;42.75
72585;BME280;60618;40.084;32.908;2022-07-10T12:20:49;88644.44;;;26.78;42.47
72585;BME280;60618;40.084;32.908;2022-07-10T12:23:17;88627.94;;;26.76;42.83
72585;BME280;60618;40.084;32.908;2022-07-10T12:25:46;88629.22;;;26.86;40.95
72585;BME280;60618;40.084;32.908;2022-07-10T12:28:13;88642.03;;;26.96;42.11
72585;BME280;60618;40.084;32.908;2022-07-10T12:30:45;88639.19;;;26.94;42.32
72585;BME280;60618;40.084;32.908;2022-07-10T12:33:14;88648.50;;;26.88;42.32
72585;BME280;60618;40.084;32.908;2022-07-10T12:35:59;88649.66;;;26.85;41.40
72585;BME280;60618;40.084;32.908;2022-07-10T12:38:27;88640.63;;;26.83;40.93
72585;BME280;60618;40.084;32.908;2022-07-10T12:41:11;88648.34;;;26.86;42.34
72585;BME280;60618;40.084;32.908;2022-07-10T12:43:39;88641.59;;;26.87;41.37
72585;BME280;60618;40.084;32.908;2022-07-10T12:46:17;88642.88;;;26.86;40.92
72585;BME280;60618;40.084;32.908;2022-07-10T12:49:05;88645.88;;;26.91;40.62
72585;BME280;60618;40.084;32.908;2022-07-10T12:51:46;88643.59;;;26.99;41.85
72585;BME280;60618;40.084;32.908;2022-07-10T12:54:35;88641.81;;;27.03;41.56
72585;BME280;60618;40.084;32.908;2022-07-10T12:57:05;88639.44;;;26.98;41.53
72585;BME280;60618;40.084;32.908;2022-07-10T12:59:36;88639.31;;;26.96;42.02
72585;BME280;60618;40.084;32.908;2022-07-10T13:02:21;88633.03;;;27.05;41.38
72585;BME280;60618;40.084;32.908;2022-07-10T13:04:56;88638.13;;;27.10;40.68
72585;BME280;60618;40.084;32.908;2022-07-10T13:07:33;88634.44;;;27.18;41.35
72585;BME280;60618;40.084;32.908;2022-07-10T13:10:07;88638.56;;;27.42;42.40
72585;BME280;60618;40.084;32.908;2022-07-10T13:12:34;88637.09;;;27.53;42.60
72585;BME280;60618;40.084;32.908;2022-07-10T13:15:04;88638.72;;;27.58;42.77
72585;BME280;60618;40.084;32.908;2022-07-10T13:17:31;88643.44;;;27.43;42.89
72585;BME280;60618;40.084;32.908;2022-07-10T13:19:58;88644.19;;;27.32;42.13
72585;BME280;60618;40.084;32.908;2022-07-10T13:22:25;88645.63;;;27.10;43.20
72585;BME280;60618;40.084;32.908;2022-07-10T13:24:52;88649.44;;;27.05;42.55
72585;BME280;60618;40.084;32.908;2022-07-10T13:27:19;88642.28;;;27.00;41.91
72585;BME280;60618;40.084;32.908;2022-07-10T13:29:46;88644.34;;;26.87;42.46
72585;BME280;60618;40.084;32.908;2022-07-10T13:32:13;88651.69;;;26.85;42.04
72585;BME280;60618;40.084;32.908;2022-07-10T13:34:40;88653.69;;;26.84;42.15
72585;BME280;60618;40.084;32.908;2022-07-10T13:37:07;88655.13;;;26.85;42.34
72585;BME280;60618;40.084;32.908;2022-07-10T13:39:34;88657.53;;;26.79;42.73